createdAt,value
2023-10-20T00:00:21.005Z,23.20
2023-10-20T00:02:48.389Z,20.80
2023-10-20T00:05:15.753Z,18.80
2023-10-20T00:07:44.242Z,21.30
2023-10-20T00:10:12.912Z,21.20
2023-10-20T00:12:40.603Z,21.20
2023-10-20T00:15:10.975Z,19.20
2023-10-20T00:17:38.361Z,18.90
2023-10-20T00:20:06.148Z,18.40
2023-10-20T00:22:37.784Z,19.60
2023-10-20T00:25:07.734Z,18.90
2023-10-20T00:27:37.391Z,19.70
2023-10-20T00:30:09.196Z,18.40
2023-10-20T00:32:41.949Z,17.90
2023-10-20T00:35:11.901Z,19.50
2023-10-20T00:37:39.554Z,18.80
2023-10-20T00:40:09.233Z,18.80
2023-10-20T00:42:39.303Z,19.00
2023-10-20T00:45:09.921Z,19.90
2023-10-20T00:47:38.461Z,20.20
2023-10-20T00:50:07.910Z,18.60
2023-10-20T00:52:39.103Z,18.70
2023-10-20T00:55:09.348Z,18.10
2023-10-20T00:57:44.275Z,18.10
2023-10-20T01:00:12.591Z,18.20
2023-10-20T01:02:40.050Z,20.00
2023-10-20T01:05:08.510Z,18.60
2023-10-20T01:07:36.852Z,20.20
2023-10-20T01:10:08.741Z,18.80
2023-10-20T01:12:36.290Z,19.60
2023-10-20T01:15:06.936Z,19.40
2023-10-20T01:17:39.841Z,21.00
2023-10-20T01:20:08.805Z,19.60
2023-10-20T01:22:36.052Z,19.30
2023-10-20T01:25:05.660Z,19.80
2023-10-20T01:27:33.682Z,20.70
2023-10-20T01:30:00.903Z,19.20
2023-10-20T01:32:29.122Z,16.60
2023-10-20T01:34:58.327Z,16.30
2023-10-20T01:37:26.149Z,16.40
2023-10-20T01:39:54.431Z,15.40
2023-10-20T01:42:23.015Z,16.10
2023-10-20T01:44:50.517Z,15.90
2023-10-20T01:47:20.086Z,15.80
2023-10-20T01:49:48.815Z,16.20
2023-10-20T01:52:16.757Z,15.90
2023-10-20T01:54:43.991Z,15.90
2023-10-20T01:57:14.728Z,14.30
2023-10-20T01:59:42.923Z,13.90
2023-10-20T02:02:10.677Z,15.50
2023-10-20T02:04:40.125Z,16.00
2023-10-20T02:07:08.394Z,13.10
2023-10-20T02:09:36.118Z,14.40
2023-10-20T02:12:05.327Z,15.70
2023-10-20T02:14:32.767Z,14.10
2023-10-20T02:17:02.748Z,15.90
2023-10-20T02:19:30.544Z,15.20
2023-10-20T02:22:01.056Z,16.60
2023-10-20T02:24:31.362Z,14.70
2023-10-20T02:26:59.363Z,13.20
2023-10-20T02:29:26.731Z,17.60
2023-10-20T02:31:55.164Z,17.50
2023-10-20T02:34:24.470Z,13.80
2023-10-20T02:36:52.996Z,13.40
2023-10-20T02:39:21.716Z,14.60
2023-10-20T02:41:50.284Z,14.50
2023-10-20T02:44:17.512Z,13.30
2023-10-20T02:46:47.070Z,13.60
2023-10-20T02:49:14.425Z,13.90
2023-10-20T02:51:41.721Z,15.30
2023-10-20T02:54:11.663Z,11.40
2023-10-20T02:56:41.935Z,16.70
2023-10-20T02:59:13.207Z,14.40
2023-10-20T03:01:45.023Z,14.60
2023-10-20T03:04:12.410Z,13.50
2023-10-20T03:06:39.748Z,16.00
2023-10-20T03:09:07.557Z,14.40
2023-10-20T03:14:07.499Z,13.50
2023-10-20T03:16:39.883Z,12.90
2023-10-20T03:19:09.801Z,14.80
2023-10-20T03:21:37.122Z,11.60
2023-10-20T03:24:07.341Z,15.20
2023-10-20T03:26:35.132Z,13.10
2023-10-20T03:29:06.326Z,12.90
2023-10-20T03:31:35.127Z,12.50
2023-10-20T03:34:06.945Z,12.10
2023-10-20T03:36:34.145Z,14.70
2023-10-20T03:39:01.993Z,12.90
2023-10-20T03:41:30.752Z,11.40
2023-10-20T03:43:58.845Z,15.90
2023-10-20T03:46:28.390Z,14.40
2023-10-20T03:48:58.832Z,13.90
2023-10-20T03:51:28.352Z,11.80
2023-10-20T03:53:56.759Z,13.30
2023-10-20T03:56:25.689Z,12.40
2023-10-20T03:58:57.998Z,13.80
2023-10-20T04:01:25.347Z,11.40
2023-10-20T04:03:53.060Z,14.70
2023-10-20T04:06:21.860Z,11.80
2023-10-20T04:08:49.084Z,13.30
2023-10-20T04:11:16.303Z,11.50
2023-10-20T04:13:44.213Z,12.30
2023-10-20T04:16:18.801Z,10.60
2023-10-20T04:18:48.776Z,11.80
2023-10-20T04:21:19.355Z,11.40
2023-10-20T04:23:47.424Z,12.00
2023-10-20T04:26:25.440Z,10.90
2023-10-20T04:29:13.542Z,12.10
2023-10-20T04:32:00.803Z,10.60
2023-10-20T04:34:47.799Z,13.10
2023-10-20T04:37:33.635Z,10.70
2023-10-20T04:40:19.494Z,11.80
2023-10-20T04:43:05.437Z,10.60
2023-10-20T04:45:32.650Z,12.10
2023-10-20T04:48:14.530Z,11.90
2023-10-20T04:50:55.402Z,14.40
2023-10-20T04:53:51.789Z,10.40
2023-10-20T04:56:41.444Z,12.30
2023-10-20T04:59:12.073Z,12.80
2023-10-20T05:01:43.259Z,15.90
2023-10-20T05:04:40.934Z,11.10
2023-10-20T05:07:10.976Z,11.00
2023-10-20T05:09:46.935Z,11.60
2023-10-20T05:12:15.435Z,13.20
2023-10-20T05:14:44.286Z,9.30
2023-10-20T05:17:16.705Z,12.50
2023-10-20T05:19:44.437Z,11.20
2023-10-20T05:22:13.820Z,11.30
2023-10-20T05:24:42.770Z,12.10
2023-10-20T05:27:13.906Z,11.40
2023-10-20T05:29:41.299Z,12.40
2023-10-20T05:32:13.204Z,11.00
2023-10-20T05:34:43.253Z,13.70
2023-10-20T05:37:12.714Z,12.80
2023-10-20T05:39:40.442Z,12.20
2023-10-20T05:42:10.271Z,11.70
2023-10-20T05:44:39.473Z,12.80
2023-10-20T05:47:08.090Z,11.50
2023-10-20T05:49:37.775Z,10.40
2023-10-20T05:52:05.310Z,15.70
2023-10-20T05:54:33.820Z,13.10
2023-10-20T05:57:02.561Z,11.50
2023-10-20T05:59:30.094Z,10.60
2023-10-20T06:02:00.007Z,12.30
2023-10-20T06:04:28.910Z,11.20
2023-10-20T06:06:58.128Z,14.30
2023-10-20T06:09:27.570Z,10.50
2023-10-20T06:11:57.198Z,13.20
2023-10-20T06:14:25.869Z,14.30
2023-10-20T06:16:54.556Z,11.00
2023-10-20T06:19:23.353Z,13.30
2023-10-20T06:21:53.366Z,9.70
2023-10-20T06:24:20.685Z,13.50
2023-10-20T06:26:49.244Z,11.40
2023-10-20T06:29:40.085Z,11.60
2023-10-20T06:32:25.975Z,10.30
2023-10-20T06:35:01.854Z,10.00
2023-10-20T06:37:38.906Z,11.10
2023-10-20T06:40:07.531Z,12.90
2023-10-20T06:42:37.798Z,11.90
2023-10-20T06:45:07.182Z,15.50
2023-10-20T06:47:37.094Z,13.20
2023-10-20T06:50:04.859Z,12.30
2023-10-20T06:52:32.295Z,10.90
2023-10-20T06:55:30.477Z,11.10
2023-10-20T06:57:50.179Z,10.50
2023-10-20T07:00:19.364Z,11.70
2023-10-20T07:02:46.746Z,12.80
2023-10-20T07:05:16.550Z,12.10
2023-10-20T07:07:43.891Z,9.60
2023-10-20T07:10:12.066Z,12.50
2023-10-20T07:12:39.810Z,11.70
2023-10-20T07:15:08.461Z,13.50
2023-10-20T07:17:36.965Z,11.30
2023-10-20T07:20:07.859Z,12.00
2023-10-20T07:22:37.668Z,11.80
2023-10-20T07:25:09.419Z,10.70
2023-10-20T07:27:37.118Z,12.00
2023-10-20T07:30:05.384Z,12.20
2023-10-20T07:32:32.745Z,12.30
2023-10-20T07:35:04.824Z,12.20
2023-10-20T07:37:34.983Z,13.50
2023-10-20T07:40:02.487Z,13.50
2023-10-20T07:42:30.639Z,10.80
2023-10-20T07:44:58.908Z,9.70
2023-10-20T07:47:27.384Z,12.20
2023-10-20T07:49:59.342Z,9.70
2023-10-20T07:52:30.268Z,11.10
2023-10-20T07:54:58.741Z,11.50
2023-10-20T07:57:33.089Z,12.30
2023-10-20T08:00:00.743Z,12.10
2023-10-20T08:02:29.048Z,11.90
2023-10-20T08:07:27.616Z,12.40
2023-10-20T08:09:55.186Z,11.60
2023-10-20T08:12:25.637Z,15.10
2023-10-20T08:14:52.941Z,13.00
2023-10-20T08:17:22.947Z,11.70
2023-10-20T08:22:23.870Z,12.30
2023-10-20T08:25:01.528Z,12.10
2023-10-20T08:27:28.988Z,11.80
2023-10-20T08:29:58.589Z,11.40
2023-10-20T08:32:27.315Z,11.30
2023-10-20T08:35:00.363Z,10.70
2023-10-20T08:37:28.517Z,11.70
2023-10-20T08:39:56.477Z,14.50
2023-10-20T08:42:25.860Z,11.50
2023-10-20T08:44:55.872Z,13.10
2023-10-20T08:47:26.722Z,11.70
2023-10-20T08:50:03.025Z,11.10
2023-10-20T08:52:30.286Z,11.40
2023-10-20T08:54:59.790Z,12.30
2023-10-20T09:00:01.389Z,12.40
2023-10-20T09:02:39.511Z,10.20
2023-10-20T09:05:08.394Z,11.90
2023-10-20T09:07:39.104Z,13.30
2023-10-20T09:10:09.545Z,14.00
2023-10-20T09:12:37.024Z,13.20
2023-10-20T09:15:04.577Z,7.60
2023-10-20T09:17:35.489Z,11.20
2023-10-20T09:20:13.021Z,14.40
2023-10-20T09:22:40.440Z,9.90
2023-10-20T09:25:14.577Z,9.30
2023-10-20T09:27:43.382Z,11.20
2023-10-20T09:30:12.577Z,13.70
2023-10-20T09:32:50.844Z,12.70
2023-10-20T09:35:23.179Z,12.70
2023-10-20T09:37:55.287Z,11.50
2023-10-20T09:40:25.713Z,14.20
2023-10-20T09:43:14.902Z,14.90
2023-10-20T09:45:49.090Z,11.40
2023-10-20T09:48:21.397Z,16.20
2023-10-20T09:50:52.101Z,12.70
2023-10-20T09:53:20.401Z,11.90
2023-10-20T09:55:49.800Z,12.50
2023-10-20T09:58:28.999Z,12.00
2023-10-20T10:00:58.641Z,10.60
2023-10-20T10:03:55.820Z,11.50
2023-10-20T10:06:25.025Z,11.90
2023-10-20T10:11:36.173Z,11.40
2023-10-20T10:14:08.224Z,11.30
2023-10-20T10:17:00.264Z,13.80
2023-10-20T10:19:29.931Z,13.20
2023-10-20T10:22:01.594Z,11.40
2023-10-20T10:24:33.161Z,14.60
2023-10-20T10:27:02.837Z,11.70
2023-10-20T10:29:52.573Z,11.90
2023-10-20T10:32:50.283Z,11.90
2023-10-20T10:35:39.854Z,13.30
2023-10-20T10:38:32.413Z,12.80
2023-10-20T10:41:02.272Z,13.60
2023-10-20T10:43:32.133Z,12.00
2023-10-20T10:45:59.463Z,10.50
2023-10-20T10:48:29.565Z,13.50
2023-10-20T10:50:58.215Z,11.30
2023-10-20T10:53:27.489Z,13.70
2023-10-20T10:55:57.124Z,12.90
2023-10-20T10:58:26.778Z,12.90
2023-10-20T11:00:56.128Z,11.80
2023-10-20T11:03:26.025Z,11.60
2023-10-20T11:05:54.102Z,15.60
2023-10-20T11:08:23.945Z,14.30
2023-10-20T11:10:53.809Z,11.30
2023-10-20T11:13:24.183Z,13.40
2023-10-20T11:15:53.919Z,14.60
2023-10-20T11:18:22.439Z,14.80
2023-10-20T11:20:54.977Z,17.00
2023-10-20T11:23:35.361Z,11.60
2023-10-20T11:26:18.744Z,15.80
2023-10-20T11:28:48.211Z,10.30
2023-10-20T11:31:16.742Z,13.90
2023-10-20T11:33:45.043Z,15.40
2023-10-20T11:36:13.664Z,10.40
2023-10-20T11:38:41.027Z,14.80
2023-10-20T11:41:12.062Z,12.20
2023-10-20T11:43:39.299Z,11.90
2023-10-20T11:46:08.192Z,15.90
2023-10-20T11:48:40.260Z,14.60
2023-10-20T11:51:11.565Z,14.50
2023-10-20T11:53:40.198Z,16.60
2023-10-20T11:56:12.300Z,14.00
2023-10-20T11:58:41.959Z,9.90
2023-10-20T12:01:09.214Z,17.10
2023-10-20T12:03:40.294Z,13.40
2023-10-20T12:06:08.752Z,12.20
2023-10-20T12:08:42.885Z,19.40
2023-10-20T12:11:10.173Z,12.00
2023-10-20T12:13:38.438Z,15.40
2023-10-20T12:16:06.916Z,15.60
2023-10-20T12:18:34.671Z,11.60
2023-10-20T12:21:05.388Z,18.30
2023-10-20T12:26:04.796Z,15.40
2023-10-20T12:28:32.846Z,14.70
2023-10-20T12:31:01.126Z,17.40
2023-10-20T12:33:30.976Z,14.50
2023-10-20T12:35:58.859Z,11.70
2023-10-20T12:38:27.365Z,15.00
2023-10-20T12:40:57.041Z,14.50
2023-10-20T12:43:26.438Z,15.70
2023-10-20T12:45:53.706Z,13.80
2023-10-20T12:48:22.104Z,16.10
2023-10-20T12:50:49.528Z,17.70
2023-10-20T12:53:18.332Z,12.10
2023-10-20T12:55:48.829Z,15.10
2023-10-20T12:58:16.380Z,18.50
2023-10-20T13:00:46.785Z,14.90
2023-10-20T13:03:14.232Z,13.50
2023-10-20T13:08:10.817Z,16.30
2023-10-20T13:10:38.043Z,13.90
2023-10-20T13:13:05.682Z,17.50
2023-10-20T13:15:33.410Z,15.50
2023-10-20T13:18:00.761Z,13.60
2023-10-20T13:20:30.521Z,17.30
2023-10-20T13:22:59.733Z,11.50
2023-10-20T13:25:29.413Z,23.00
2023-10-20T13:28:00.959Z,18.40
2023-10-20T13:30:30.546Z,17.20
2023-10-20T13:32:57.853Z,19.00
2023-10-20T13:35:30.011Z,15.60
2023-10-20T13:37:59.601Z,15.40
2023-10-20T13:40:32.016Z,13.10
2023-10-20T13:42:59.657Z,14.50
2023-10-20T13:45:32.063Z,15.50
2023-10-20T13:48:01.598Z,12.00
2023-10-20T13:50:29.507Z,17.30
2023-10-20T13:52:59.330Z,14.60
2023-10-20T13:55:27.382Z,16.20
2023-10-20T13:57:55.246Z,12.30
2023-10-20T14:00:22.483Z,15.80
2023-10-20T14:02:49.978Z,15.70
2023-10-20T14:05:20.511Z,16.90
2023-10-20T14:07:47.686Z,16.30
2023-10-20T14:10:15.023Z,13.20
2023-10-20T14:12:43.411Z,17.00
2023-10-20T14:15:11.207Z,11.50
2023-10-20T14:17:38.670Z,18.20
2023-10-20T14:20:06.635Z,12.10
2023-10-20T14:22:33.867Z,16.50
2023-10-20T14:25:01.070Z,15.70
2023-10-20T14:27:28.699Z,18.20
2023-10-20T14:29:56.031Z,19.80
2023-10-20T14:32:24.043Z,17.90
2023-10-20T14:34:51.394Z,16.80
2023-10-20T14:37:18.716Z,17.50
2023-10-20T14:39:50.488Z,17.80
2023-10-20T14:42:17.675Z,20.70
2023-10-20T14:44:47.231Z,16.00
2023-10-20T14:47:17.040Z,15.70
2023-10-20T14:49:49.724Z,21.20
2023-10-20T14:52:17.803Z,15.50
2023-10-20T14:54:46.358Z,14.50
2023-10-20T14:57:13.647Z,14.10
2023-10-20T14:59:40.973Z,18.10
2023-10-20T15:02:09.256Z,18.90
2023-10-20T15:04:38.967Z,17.40
2023-10-20T15:07:06.515Z,20.60
2023-10-20T15:09:33.926Z,17.80
2023-10-20T15:12:01.644Z,18.40
2023-10-20T15:14:29.005Z,16.30
2023-10-20T15:16:58.181Z,14.10
2023-10-20T15:19:25.783Z,19.60
2023-10-20T15:21:54.666Z,14.10
2023-10-20T15:24:21.881Z,20.00
2023-10-20T15:26:49.278Z,14.90
2023-10-20T15:29:19.167Z,17.60
2023-10-20T15:31:46.442Z,17.70
2023-10-20T15:34:16.642Z,17.40
2023-10-20T15:36:51.024Z,25.00
2023-10-20T15:39:26.572Z,19.00
2023-10-20T15:41:58.329Z,18.70
2023-10-20T15:44:25.750Z,18.60
2023-10-20T15:47:11.928Z,16.50
2023-10-20T15:49:44.452Z,20.00
2023-10-20T15:52:33.065Z,17.20
2023-10-20T15:55:02.967Z,23.00
2023-10-20T15:57:32.883Z,16.80
2023-10-20T16:00:00.150Z,17.40
2023-10-20T16:02:29.379Z,19.90
2023-10-20T16:05:16.948Z,17.10
2023-10-20T16:07:44.303Z,21.60
2023-10-20T16:10:11.730Z,20.90
2023-10-20T16:12:39.427Z,17.70
2023-10-20T16:15:08.095Z,20.50
2023-10-20T16:17:56.971Z,18.60
2023-10-20T16:22:51.606Z,20.00
2023-10-20T16:25:39.812Z,22.40
2023-10-20T16:28:08.506Z,24.10
2023-10-20T16:30:55.733Z,19.30
2023-10-20T16:33:23.386Z,17.40
2023-10-20T16:35:55.992Z,21.50
2023-10-20T16:38:24.103Z,18.60
2023-10-20T16:40:57.254Z,19.50
2023-10-20T16:45:54.556Z,17.60
2023-10-20T16:48:26.994Z,24.50
2023-10-20T16:50:59.948Z,18.90
2023-10-20T16:53:29.889Z,17.30
2023-10-20T16:56:00.712Z,18.20
2023-10-20T16:58:28.310Z,23.50
2023-10-20T17:01:02.498Z,20.50
2023-10-20T17:03:32.334Z,21.90
2023-10-20T17:06:09.046Z,14.50
2023-10-20T17:08:38.591Z,19.80
2023-10-20T17:11:08.215Z,17.10
2023-10-20T17:13:37.725Z,21.00
2023-10-20T17:16:06.140Z,17.60
2023-10-20T17:18:33.846Z,17.90
2023-10-20T17:21:05.044Z,17.60
2023-10-20T17:23:52.633Z,18.50
2023-10-20T17:26:20.759Z,17.00
2023-10-20T17:28:48.998Z,18.40
2023-10-20T17:31:16.309Z,18.90
2023-10-20T17:33:43.831Z,18.70
2023-10-20T17:36:31.221Z,18.40
2023-10-20T17:38:59.223Z,18.50
2023-10-20T17:41:26.588Z,18.80
2023-10-20T17:43:54.741Z,20.30
2023-10-20T17:46:23.799Z,22.30
2023-10-20T17:48:53.478Z,19.60
2023-10-20T17:51:22.392Z,18.50
2023-10-20T17:53:53.294Z,19.60
2023-10-20T17:56:22.160Z,15.90
2023-10-20T17:58:49.486Z,22.70
2023-10-20T18:01:18.026Z,22.10
2023-10-20T18:06:18.906Z,25.70
2023-10-20T18:08:53.169Z,21.40
2023-10-20T18:11:22.578Z,18.10
2023-10-20T18:13:52.661Z,22.30
2023-10-20T18:16:22.979Z,17.50
2023-10-20T18:18:50.882Z,20.20
2023-10-20T18:21:21.113Z,22.70
2023-10-20T18:23:49.036Z,19.90
2023-10-20T18:26:16.655Z,19.10
2023-10-20T18:28:43.974Z,22.30
2023-10-20T18:31:19.045Z,19.60
2023-10-20T18:33:49.057Z,26.90
2023-10-20T18:36:19.300Z,19.10
2023-10-20T18:38:46.722Z,21.10
2023-10-20T18:41:17.133Z,19.90
2023-10-20T18:43:44.429Z,15.40
2023-10-20T18:46:14.253Z,20.50
2023-10-20T18:48:43.048Z,18.50
2023-10-20T18:51:12.492Z,20.20
2023-10-20T18:53:44.179Z,22.40
2023-10-20T18:56:11.993Z,19.60
2023-10-20T18:58:44.773Z,20.00
2023-10-20T19:01:16.276Z,15.60
2023-10-20T19:03:48.629Z,17.30
2023-10-20T19:06:17.362Z,19.90
2023-10-20T19:08:45.019Z,19.30
2023-10-20T19:11:15.627Z,18.90
2023-10-20T19:13:47.385Z,16.90
2023-10-20T19:16:19.502Z,21.00
2023-10-20T19:18:48.495Z,17.90
2023-10-20T19:21:18.088Z,20.80
2023-10-20T19:23:47.384Z,15.30
2023-10-20T19:26:16.057Z,18.10
2023-10-20T19:28:45.793Z,18.50
2023-10-20T19:31:13.028Z,22.40
2023-10-20T19:33:42.352Z,18.20
2023-10-20T19:36:10.398Z,17.80
2023-10-20T19:38:39.653Z,19.60
2023-10-20T19:41:13.104Z,16.30
2023-10-20T19:43:40.826Z,19.20
2023-10-20T19:46:15.166Z,17.70
2023-10-20T19:48:43.252Z,17.40
2023-10-20T19:51:12.787Z,18.10
2023-10-20T19:53:41.206Z,16.90
2023-10-20T19:56:10.718Z,17.80
2023-10-20T19:58:39.282Z,17.70
2023-10-20T20:01:06.576Z,17.90
2023-10-20T20:03:39.559Z,18.60
2023-10-20T20:06:22.882Z,19.30
2023-10-20T20:08:50.079Z,18.00
2023-10-20T20:11:18.770Z,17.20
2023-10-20T20:13:47.883Z,23.90
2023-10-20T20:16:17.007Z,18.00
2023-10-20T20:18:44.945Z,19.60
2023-10-20T20:21:13.193Z,20.40
2023-10-20T20:23:48.570Z,23.60
2023-10-20T20:28:48.732Z,17.90
2023-10-20T20:31:35.926Z,17.50
2023-10-20T20:34:07.950Z,21.50
2023-10-20T20:36:35.051Z,19.60
2023-10-20T20:39:06.710Z,20.50
2023-10-20T20:41:33.848Z,19.40
2023-10-20T20:44:01.062Z,21.00
2023-10-20T20:46:30.074Z,20.10
2023-10-20T20:48:57.449Z,17.40
2023-10-20T20:51:24.593Z,19.40
2023-10-20T20:53:54.033Z,18.90
2023-10-20T20:56:21.134Z,18.70
2023-10-20T20:58:48.265Z,20.70
2023-10-20T21:01:15.944Z,22.00
2023-10-20T21:03:46.011Z,18.10
2023-10-20T21:06:14.092Z,17.30
2023-10-20T21:08:42.445Z,19.50
2023-10-20T21:13:43.501Z,17.40
2023-10-20T21:16:11.539Z,19.10
2023-10-20T21:18:39.280Z,20.20
2023-10-20T21:21:15.595Z,15.80
2023-10-20T21:23:46.065Z,15.80
2023-10-20T21:26:14.238Z,19.30
2023-10-20T21:28:43.634Z,17.10
2023-10-20T21:31:12.522Z,20.30
2023-10-20T21:33:39.893Z,16.50
2023-10-20T21:36:07.984Z,18.40
2023-10-20T21:38:37.261Z,18.30
2023-10-20T21:41:06.506Z,20.90
2023-10-20T21:43:33.605Z,19.70
2023-10-20T21:46:00.779Z,15.40
2023-10-20T21:48:30.308Z,17.40
2023-10-20T21:51:03.904Z,20.20
2023-10-20T21:53:34.930Z,17.70
2023-10-20T21:56:04.003Z,17.20
2023-10-20T21:58:32.566Z,19.60
2023-10-20T22:01:01.155Z,16.10
2023-10-20T22:03:30.064Z,19.70
2023-10-20T22:05:57.640Z,17.10
2023-10-20T22:08:25.894Z,15.40
2023-10-20T22:10:53.123Z,16.90
2023-10-20T22:13:20.358Z,17.60
2023-10-20T22:15:49.867Z,18.80
2023-10-20T22:18:18.948Z,20.20
2023-10-20T22:20:47.415Z,22.20
2023-10-20T22:23:15.144Z,19.70
2023-10-20T22:25:42.592Z,18.10
2023-10-20T22:28:12.026Z,16.30
2023-10-20T22:30:39.254Z,16.50
2023-10-20T22:33:06.545Z,16.60
2023-10-20T22:35:35.443Z,19.70
2023-10-20T22:38:03.124Z,16.60
2023-10-20T22:40:30.260Z,18.20
2023-10-20T22:42:57.394Z,20.60
2023-10-20T22:45:24.705Z,21.60
2023-10-20T22:47:51.925Z,17.40
2023-10-20T22:50:21.335Z,19.80
2023-10-20T22:52:49.081Z,21.10
2023-10-20T22:55:18.561Z,21.50
2023-10-20T22:57:49.107Z,21.80
2023-10-20T23:00:16.890Z,24.30
2023-10-20T23:02:46.352Z,18.10
2023-10-20T23:05:13.842Z,20.30
2023-10-20T23:07:41.193Z,21.10
2023-10-20T23:10:11.341Z,19.40
2023-10-20T23:12:39.045Z,18.40
2023-10-20T23:15:07.647Z,18.30
2023-10-20T23:17:35.671Z,18.80
2023-10-20T23:20:08.759Z,15.60
2023-10-20T23:22:38.236Z,20.90
2023-10-20T23:25:08.385Z,21.10
2023-10-20T23:27:35.585Z,18.00
2023-10-20T23:30:08.244Z,20.30
2023-10-20T23:32:35.493Z,17.00
2023-10-20T23:35:03.328Z,17.50
2023-10-20T23:37:32.892Z,19.40
2023-10-20T23:40:00.381Z,18.30
2023-10-20T23:42:28.269Z,18.10
2023-10-20T23:44:55.984Z,23.00
2023-10-20T23:47:23.685Z,17.50
2023-10-20T23:49:53.065Z,19.00
2023-10-20T23:52:20.168Z,17.10
2023-10-20T23:54:54.874Z,19.00
2023-10-20T23:57:24.222Z,16.70
2023-10-20T23:59:53.607Z,20.70
